createdAt,value
2017-11-22T00:01:27.912Z,75.50
2017-11-22T00:03:55.463Z,75.60
2017-11-22T00:06:23.025Z,75.20
2017-11-22T00:08:50.589Z,75.50
2017-11-22T00:11:18.959Z,75.10
2017-11-22T00:13:46.512Z,75.00
2017-11-22T00:16:14.105Z,75.70
2017-11-22T00:18:41.641Z,75.40
2017-11-22T00:21:09.223Z,76.30
2017-11-22T00:23:36.791Z,75.40
2017-11-22T00:26:04.350Z,75.20
2017-11-22T00:28:31.951Z,75.10
2017-11-22T00:30:59.502Z,75.60
2017-11-22T00:33:27.079Z,75.00
2017-11-22T00:35:54.640Z,74.70
2017-11-22T00:38:22.219Z,74.60
2017-11-22T00:40:49.794Z,74.20
2017-11-22T00:43:17.369Z,74.30
2017-11-22T00:45:44.922Z,74.10
2017-11-22T00:48:12.468Z,74.40
2017-11-22T00:50:40.041Z,74.50
2017-11-22T00:53:07.600Z,74.60
2017-11-22T00:55:35.210Z,74.40
2017-11-22T00:58:02.758Z,74.80
2017-11-22T01:00:30.334Z,75.30
2017-11-22T01:02:57.897Z,74.90
2017-11-22T01:05:25.477Z,75.00
2017-11-22T01:07:53.040Z,75.30
2017-11-22T01:10:20.605Z,75.70
2017-11-22T01:12:48.176Z,75.50
2017-11-22T01:15:15.750Z,75.50
2017-11-22T01:17:43.322Z,75.40
2017-11-22T01:20:10.896Z,75.80
2017-11-22T01:22:39.272Z,75.60
2017-11-22T01:25:06.822Z,75.70
2017-11-22T01:27:35.167Z,75.90
2017-11-22T01:30:02.759Z,75.90
2017-11-22T01:32:31.153Z,76.30
2017-11-22T01:34:58.745Z,76.10
2017-11-22T01:37:26.300Z,76.20
2017-11-22T01:39:53.901Z,76.20
2017-11-22T01:42:21.463Z,76.80
2017-11-22T01:44:49.072Z,76.60
2017-11-22T01:47:16.681Z,76.40
2017-11-22T01:49:44.302Z,75.50
2017-11-22T01:52:11.883Z,75.50
2017-11-22T01:54:39.496Z,76.10
2017-11-22T01:57:07.042Z,76.00
2017-11-22T01:59:35.362Z,74.80
2017-11-22T02:02:02.937Z,74.80
2017-11-22T02:04:30.497Z,75.20
2017-11-22T02:06:58.062Z,74.90
2017-11-22T02:09:25.635Z,74.40
2017-11-22T02:11:53.232Z,75.00
2017-11-22T02:14:20.813Z,74.50
2017-11-22T02:16:48.397Z,75.00
2017-11-22T02:19:15.963Z,75.00
2017-11-22T02:21:43.558Z,75.40
2017-11-22T02:24:11.906Z,75.60
2017-11-22T02:26:39.456Z,75.60
2017-11-22T02:29:07.031Z,75.60
2017-11-22T02:31:34.637Z,75.20
2017-11-22T02:34:02.214Z,75.20
2017-11-22T02:36:29.760Z,75.00
2017-11-22T02:38:57.354Z,74.90
2017-11-22T02:41:24.910Z,75.00
2017-11-22T02:43:52.471Z,74.80
2017-11-22T02:46:20.045Z,74.80
2017-11-22T02:48:47.604Z,74.70
2017-11-22T02:51:15.207Z,74.70
2017-11-22T02:53:42.755Z,75.10
2017-11-22T02:56:11.099Z,75.60
2017-11-22T02:58:38.710Z,75.60
2017-11-22T03:01:06.262Z,76.40
2017-11-22T03:03:33.855Z,75.90
2017-11-22T03:06:01.412Z,75.70
2017-11-22T03:08:28.968Z,75.50
2017-11-22T03:10:56.539Z,75.20
2017-11-22T03:13:24.091Z,75.60
2017-11-22T03:15:51.693Z,75.70
2017-11-22T03:18:20.030Z,75.80
2017-11-22T03:20:47.576Z,75.80
2017-11-22T03:23:15.155Z,75.60
2017-11-22T03:25:42.715Z,75.80
2017-11-22T03:28:10.303Z,76.00
2017-11-22T03:30:37.882Z,75.40
2017-11-22T03:33:06.307Z,75.50
2017-11-22T03:35:33.924Z,75.40
2017-11-22T03:38:02.253Z,75.40
2017-11-22T03:40:29.864Z,75.40
2017-11-22T03:42:58.210Z,75.20
2017-11-22T03:45:25.802Z,75.20
2017-11-22T03:47:54.139Z,75.90
2017-11-22T03:53:27.323Z,75.50
2017-11-22T03:55:54.877Z,75.30
2017-11-22T03:58:29.233Z,75.40
2017-11-22T04:00:56.793Z,75.60
2017-11-22T04:03:24.352Z,75.30
2017-11-22T04:05:55.976Z,75.40
2017-11-22T04:08:27.374Z,75.50
2017-11-22T04:10:54.926Z,75.70
2017-11-22T04:13:22.505Z,76.10
2017-11-22T04:15:50.852Z,75.90
2017-11-22T04:18:20.162Z,75.90
2017-11-22T04:20:53.468Z,75.60
2017-11-22T04:23:21.012Z,75.60
2017-11-22T04:25:48.598Z,75.70
2017-11-22T04:28:16.943Z,75.90
2017-11-22T04:30:44.516Z,75.90
2017-11-22T04:33:12.135Z,75.40
2017-11-22T04:35:39.690Z,75.40
2017-11-22T04:38:07.251Z,75.70
2017-11-22T04:40:34.832Z,75.60
2017-11-22T04:43:02.405Z,75.40
2017-11-22T04:45:30.034Z,76.10
2017-11-22T04:47:57.658Z,76.30
2017-11-22T04:50:25.997Z,76.20
2017-11-22T04:52:53.603Z,76.20
2017-11-22T04:55:21.944Z,75.30
2017-11-22T04:57:50.327Z,75.10
2017-11-22T05:00:17.918Z,75.10
2017-11-22T05:02:46.273Z,74.90
2017-11-22T05:05:13.854Z,74.90
2017-11-22T05:07:42.200Z,75.40
2017-11-22T05:10:09.741Z,75.40
2017-11-22T05:12:37.329Z,75.30
2017-11-22T05:15:04.903Z,75.20
2017-11-22T05:17:33.236Z,75.10
2017-11-22T05:20:00.805Z,75.10
2017-11-22T05:22:28.346Z,75.30
2017-11-22T05:24:55.925Z,75.40
2017-11-22T05:27:23.490Z,75.30
2017-11-22T05:29:51.047Z,75.40
2017-11-22T05:32:18.615Z,75.00
2017-11-22T05:34:46.167Z,75.30
2017-11-22T05:37:13.732Z,75.20
2017-11-22T05:39:41.313Z,75.00
2017-11-22T05:42:08.918Z,74.70
2017-11-22T05:44:36.488Z,74.90
2017-11-22T05:47:04.071Z,75.20
2017-11-22T05:49:31.642Z,74.60
2017-11-22T05:51:59.232Z,75.20
2017-11-22T05:54:27.557Z,75.70
2017-11-22T05:56:55.143Z,75.70
2017-11-22T05:59:22.728Z,76.40
2017-11-22T06:01:51.046Z,76.10
2017-11-22T06:04:19.546Z,76.00
2017-11-22T06:06:47.127Z,76.10
2017-11-22T06:09:14.707Z,76.10
2017-11-22T06:11:43.048Z,76.40
2017-11-22T06:14:11.352Z,75.50
2017-11-22T06:16:39.664Z,75.50
2017-11-22T06:19:07.244Z,75.50
2017-11-22T06:21:34.786Z,76.20
2017-11-22T06:24:02.396Z,76.20
2017-11-22T06:26:29.947Z,76.20
2017-11-22T06:28:57.504Z,76.20
2017-11-22T06:31:25.097Z,75.90
2017-11-22T06:33:53.419Z,76.20
2017-11-22T06:36:21.015Z,76.20
2017-11-22T06:38:49.350Z,76.70
2017-11-22T06:41:16.911Z,76.90
2017-11-22T06:43:44.544Z,77.30
2017-11-22T06:46:12.145Z,77.30
2017-11-22T06:48:39.701Z,77.10
2017-11-22T06:51:07.296Z,77.50
2017-11-22T06:53:34.855Z,77.60
2017-11-22T06:56:02.410Z,77.50
2017-11-22T06:58:30.018Z,77.90
2017-11-22T07:00:57.566Z,77.30
2017-11-22T07:03:30.755Z,77.40
2017-11-22T07:05:58.333Z,77.80
2017-11-22T07:08:25.911Z,77.70
2017-11-22T07:10:53.499Z,78.10
2017-11-22T07:13:21.039Z,79.10
2017-11-22T07:15:54.578Z,80.40
2017-11-22T07:18:22.902Z,82.00
2017-11-22T07:20:50.455Z,82.00
2017-11-22T07:23:18.035Z,81.30
2017-11-22T07:25:45.597Z,80.50
2017-11-22T07:28:13.149Z,81.00
2017-11-22T07:30:41.089Z,82.40
2017-11-22T07:33:08.642Z,81.90
2017-11-22T07:35:41.989Z,81.30
2017-11-22T07:38:09.533Z,80.10
2017-11-22T07:40:37.093Z,79.80
2017-11-22T07:43:04.662Z,79.10
2017-11-22T07:45:32.229Z,79.50
2017-11-22T07:48:05.527Z,78.30
2017-11-22T07:50:33.097Z,77.10
2017-11-22T07:53:01.414Z,78.10
2017-11-22T07:55:29.007Z,78.10
2017-11-22T07:57:56.581Z,78.30
2017-11-22T08:00:24.220Z,79.20
2017-11-22T08:02:57.377Z,81.70
2017-11-22T08:05:24.980Z,80.70
2017-11-22T08:07:52.541Z,78.80
2017-11-22T08:10:20.870Z,77.30
2017-11-22T08:12:48.455Z,76.80
2017-11-22T08:15:16.015Z,76.10
2017-11-22T08:17:43.564Z,75.50
2017-11-22T08:20:11.914Z,76.00
2017-11-22T08:22:40.223Z,78.10
2017-11-22T08:25:07.814Z,78.10
2017-11-22T08:27:35.360Z,79.40
2017-11-22T08:30:02.953Z,79.50
2017-11-22T08:32:30.575Z,79.40
2017-11-22T08:34:58.127Z,78.50
2017-11-22T08:37:25.724Z,78.80
2017-11-22T08:39:53.300Z,78.10
2017-11-22T08:42:27.403Z,76.80
2017-11-22T08:44:54.967Z,76.80
2017-11-22T08:47:22.526Z,76.80
2017-11-22T08:49:50.908Z,75.20
2017-11-22T08:52:19.241Z,75.10
2017-11-22T08:54:52.412Z,75.10
2017-11-22T08:57:25.713Z,74.70
2017-11-22T08:59:58.959Z,74.60
2017-11-22T09:02:26.507Z,74.40
2017-11-22T09:04:54.074Z,72.90
2017-11-22T09:07:24.539Z,71.60
2017-11-22T09:09:52.132Z,70.90
2017-11-22T09:12:25.374Z,71.80
2017-11-22T09:14:54.416Z,71.20
2017-11-22T09:17:21.977Z,71.20
2017-11-22T09:19:49.583Z,70.60
2017-11-22T09:22:18.654Z,66.60
2017-11-22T09:24:51.908Z,66.60
2017-11-22T09:27:25.229Z,65.10
2017-11-22T09:29:56.599Z,64.00
2017-11-22T09:32:29.753Z,64.70
2017-11-22T09:35:03.055Z,63.90
2017-11-22T09:37:30.613Z,62.50
2017-11-22T09:39:58.193Z,61.60
2017-11-22T09:42:25.799Z,61.20
2017-11-22T09:44:53.354Z,60.70
2017-11-22T09:47:20.906Z,59.90
2017-11-22T09:49:49.258Z,60.00
2017-11-22T09:52:16.848Z,60.00
2017-11-22T09:54:44.429Z,60.90
2017-11-22T09:57:12.034Z,61.30
2017-11-22T09:59:39.590Z,61.50
2017-11-22T10:02:07.163Z,61.80
2017-11-22T10:04:34.813Z,59.50
2017-11-22T10:07:02.380Z,62.30
2017-11-22T10:09:29.955Z,62.30
2017-11-22T10:11:58.317Z,59.50
2017-11-22T10:14:25.877Z,59.40
2017-11-22T10:20:11.047Z,58.50
2017-11-22T10:22:44.317Z,56.10
2017-11-22T10:25:11.921Z,55.30
2017-11-22T10:27:49.460Z,55.90
2017-11-22T10:30:17.030Z,53.10
2017-11-22T10:32:49.472Z,51.80
2017-11-22T10:35:17.862Z,51.50
2017-11-22T10:37:45.629Z,51.50
2017-11-22T10:40:13.220Z,52.40
2017-11-22T10:42:40.813Z,52.00
2017-11-22T10:45:08.397Z,50.60
2017-11-22T10:47:36.776Z,49.20
2017-11-22T10:50:05.120Z,51.80
2017-11-22T10:52:32.711Z,51.80
2017-11-22T10:55:01.074Z,50.50
2017-11-22T10:57:29.491Z,48.80
2017-11-22T10:59:57.094Z,48.80
2017-11-22T11:02:24.650Z,50.50
2017-11-22T11:04:52.275Z,48.70
2017-11-22T11:07:19.853Z,48.80
2017-11-22T11:09:47.404Z,48.90
2017-11-22T11:12:15.034Z,49.20
2017-11-22T11:14:43.403Z,50.70
2017-11-22T11:17:11.739Z,50.90
2017-11-22T11:19:39.323Z,50.90
2017-11-22T11:22:06.884Z,52.00
2017-11-22T11:24:34.449Z,50.10
2017-11-22T11:27:02.048Z,48.00
2017-11-22T11:29:29.607Z,49.00
2017-11-22T11:31:57.159Z,47.50
2017-11-22T11:34:24.766Z,48.60
2017-11-22T11:36:52.405Z,48.30
2017-11-22T11:39:20.261Z,48.20
2017-11-22T11:41:47.878Z,48.40
2017-11-22T11:44:15.488Z,48.10
2017-11-22T11:46:43.116Z,50.00
2017-11-22T11:49:11.467Z,51.10
2017-11-22T11:51:39.052Z,51.10
2017-11-22T11:54:07.404Z,50.20
2017-11-22T11:56:34.952Z,50.10
2017-11-22T11:59:02.555Z,52.10
2017-11-22T12:01:30.933Z,48.30
2017-11-22T12:03:59.268Z,50.30
2017-11-22T12:06:26.840Z,50.30
2017-11-22T12:08:54.405Z,51.80
2017-11-22T12:11:21.958Z,49.70
2017-11-22T12:13:49.546Z,50.90
2017-11-22T12:16:17.855Z,50.60
2017-11-22T12:18:45.431Z,50.60
2017-11-22T12:21:13.876Z,50.90
2017-11-22T12:23:42.194Z,50.90
2017-11-22T12:26:09.761Z,50.90
2017-11-22T12:28:37.363Z,51.90
2017-11-22T12:31:05.715Z,52.00
2017-11-22T12:33:33.302Z,52.00
2017-11-22T12:36:01.668Z,51.90
2017-11-22T12:38:29.246Z,51.90
2017-11-22T12:40:57.586Z,50.60
2017-11-22T12:43:25.166Z,50.60
2017-11-22T12:45:53.497Z,49.30
2017-11-22T12:48:21.060Z,49.20
2017-11-22T12:50:48.643Z,49.40
2017-11-22T12:53:16.203Z,48.90
2017-11-22T12:55:43.767Z,49.70
2017-11-22T12:58:13.170Z,49.00
2017-11-22T13:00:40.778Z,49.00
2017-11-22T13:03:08.349Z,47.90
2017-11-22T13:05:35.953Z,46.00
2017-11-22T13:08:03.513Z,47.20
2017-11-22T13:10:34.032Z,46.60
2017-11-22T13:13:01.660Z,46.70
2017-11-22T13:15:29.247Z,47.20
2017-11-22T13:17:56.807Z,46.40
2017-11-22T13:20:24.430Z,48.10
2017-11-22T13:22:51.994Z,47.70
2017-11-22T13:25:19.573Z,47.60
2017-11-22T13:27:47.163Z,46.80
2017-11-22T13:30:14.718Z,47.40
2017-11-22T13:32:42.332Z,47.20
2017-11-22T13:35:09.934Z,45.60
2017-11-22T13:37:37.581Z,48.60
2017-11-22T13:40:05.182Z,48.30
2017-11-22T13:42:33.537Z,44.60
2017-11-22T13:45:01.180Z,44.50
2017-11-22T13:47:28.806Z,46.50
2017-11-22T13:49:56.393Z,45.40
2017-11-22T13:52:24.002Z,43.70
2017-11-22T13:54:52.380Z,53.30
2017-11-22T13:57:20.859Z,47.90
2017-11-22T13:59:50.155Z,49.70
2017-11-22T14:02:18.990Z,49.40
2017-11-22T14:04:48.322Z,56.00
2017-11-22T14:07:17.093Z,55.90
2017-11-22T14:09:45.617Z,53.80
2017-11-22T14:12:15.797Z,56.00
2017-11-22T14:14:44.788Z,55.80
2017-11-22T14:17:13.833Z,52.70
2017-11-22T14:19:42.585Z,54.90
2017-11-22T14:22:10.421Z,55.60
2017-11-22T14:24:37.999Z,51.70
2017-11-22T14:27:05.588Z,50.70
2017-11-22T14:29:33.215Z,48.80
2017-11-22T14:32:00.791Z,49.00
2017-11-22T14:34:28.370Z,49.30
2017-11-22T14:36:56.001Z,50.70
2017-11-22T14:39:23.625Z,50.80
2017-11-22T14:41:51.966Z,51.80
2017-11-22T14:44:19.604Z,51.90
2017-11-22T14:46:47.195Z,53.40
2017-11-22T14:49:14.807Z,54.40
2017-11-22T14:51:42.442Z,54.00
2017-11-22T14:54:10.799Z,55.30
2017-11-22T14:56:39.203Z,55.10
2017-11-22T14:59:06.805Z,55.00
2017-11-22T15:01:34.412Z,55.50
2017-11-22T15:04:02.839Z,56.60
2017-11-22T15:06:30.443Z,56.70
2017-11-22T15:08:58.792Z,57.30
2017-11-22T15:11:26.416Z,57.40
2017-11-22T15:13:54.007Z,57.60
2017-11-22T15:16:21.594Z,58.10
2017-11-22T15:18:49.215Z,58.30
2017-11-22T15:21:16.881Z,58.70
2017-11-22T15:23:44.476Z,59.10
2017-11-22T15:26:12.049Z,59.30
2017-11-22T15:28:40.415Z,58.70
2017-11-22T15:31:08.018Z,58.60
2017-11-22T15:33:35.630Z,58.90
2017-11-22T15:36:03.251Z,59.30
2017-11-22T15:38:30.847Z,59.80
2017-11-22T15:40:58.435Z,59.50
2017-11-22T15:43:26.848Z,59.30
2017-11-22T15:45:54.401Z,59.30
2017-11-22T15:48:21.969Z,57.70
2017-11-22T15:50:49.572Z,58.20
2017-11-22T15:53:17.148Z,57.50
2017-11-22T15:55:45.554Z,53.30
2017-11-22T15:58:13.121Z,53.90
2017-11-22T16:00:40.717Z,52.10
2017-11-22T16:03:08.363Z,51.10
2017-11-22T16:05:35.952Z,51.70
2017-11-22T16:08:04.812Z,50.80
2017-11-22T16:10:32.764Z,49.90
2017-11-22T16:13:00.369Z,49.90
2017-11-22T16:15:27.998Z,49.60
2017-11-22T16:17:55.857Z,49.60
2017-11-22T16:20:23.461Z,49.10
2017-11-22T16:22:51.041Z,50.30
2017-11-22T16:25:19.363Z,49.60
2017-11-22T16:27:47.713Z,50.30
2017-11-22T16:30:15.339Z,50.30
2017-11-22T16:32:42.936Z,50.50
2017-11-22T16:35:10.551Z,51.60
2017-11-22T16:37:38.265Z,51.50
2017-11-22T16:40:05.850Z,53.70
2017-11-22T16:42:33.648Z,55.00
2017-11-22T16:45:01.239Z,58.50
2017-11-22T16:47:28.826Z,59.20
2017-11-22T16:49:56.414Z,60.50
2017-11-22T16:52:24.015Z,60.60
2017-11-22T16:54:52.386Z,60.70
2017-11-22T16:57:20.758Z,60.90
2017-11-22T16:59:49.111Z,61.00
2017-11-22T17:02:16.748Z,60.90
2017-11-22T17:04:45.153Z,63.30
2017-11-22T17:07:13.244Z,63.30
2017-11-22T17:09:40.831Z,64.00
2017-11-22T17:12:08.405Z,64.50
2017-11-22T17:14:36.016Z,65.20
2017-11-22T17:17:03.575Z,65.50
2017-11-22T17:19:31.154Z,65.90
2017-11-22T17:21:59.552Z,64.90
2017-11-22T17:24:27.115Z,64.90
2017-11-22T17:26:54.665Z,64.80
2017-11-22T17:29:23.080Z,64.90
2017-11-22T17:31:50.644Z,64.90
2017-11-22T17:34:18.241Z,64.70
2017-11-22T17:36:45.856Z,65.20
2017-11-22T17:39:13.496Z,64.80
2017-11-22T17:41:41.112Z,65.20
2017-11-22T17:44:08.712Z,65.10
2017-11-22T17:46:36.296Z,65.60
2017-11-22T17:49:03.925Z,65.80
2017-11-22T17:51:32.257Z,65.80
2017-11-22T17:53:59.872Z,65.70
2017-11-22T17:56:27.434Z,65.80
2017-11-22T17:58:55.058Z,66.00
2017-11-22T18:01:23.464Z,66.40
2017-11-22T18:03:51.066Z,66.40
2017-11-22T18:06:18.681Z,66.30
2017-11-22T18:08:47.092Z,67.70
2017-11-22T18:11:14.636Z,67.70
2017-11-22T18:13:42.195Z,67.50
2017-11-22T18:16:09.970Z,68.00
2017-11-22T18:18:37.555Z,67.30
2017-11-22T18:21:05.200Z,67.40
2017-11-22T18:23:32.819Z,67.40
2017-11-22T18:26:01.148Z,67.60
2017-11-22T18:28:28.752Z,67.60
2017-11-22T18:30:57.135Z,67.30
2017-11-22T18:33:25.504Z,67.50
2017-11-22T18:35:53.070Z,67.50
2017-11-22T18:38:21.419Z,67.60
2017-11-22T18:40:49.027Z,67.60
2017-11-22T18:43:17.385Z,67.60
2017-11-22T18:45:44.981Z,67.60
2017-11-22T18:48:12.561Z,68.50
2017-11-22T18:50:40.198Z,68.00
2017-11-22T18:53:07.784Z,67.20
2017-11-22T18:55:35.330Z,67.40
2017-11-22T18:58:02.897Z,67.40
2017-11-22T19:00:30.497Z,67.90
2017-11-22T19:02:58.063Z,68.50
2017-11-22T19:05:25.658Z,68.90
2017-11-22T19:07:57.309Z,68.80
2017-11-22T19:10:24.862Z,69.90
2017-11-22T19:12:53.222Z,68.10
2017-11-22T19:15:21.537Z,68.40
2017-11-22T19:17:49.091Z,68.40
2017-11-22T19:20:16.693Z,68.80
2017-11-22T19:22:44.268Z,68.50
2017-11-22T19:25:11.908Z,68.50
2017-11-22T19:27:39.487Z,69.00
2017-11-22T19:30:07.062Z,68.40
2017-11-22T19:32:35.414Z,68.80
2017-11-22T19:35:03.066Z,68.80
2017-11-22T19:37:30.639Z,68.50
2017-11-22T19:39:58.242Z,68.50
2017-11-22T19:42:25.806Z,68.30
2017-11-22T19:44:53.360Z,68.80
2017-11-22T19:47:20.964Z,69.00
2017-11-22T19:49:48.535Z,69.10
2017-11-22T19:52:16.374Z,69.20
2017-11-22T19:54:43.973Z,71.10
2017-11-22T19:57:13.032Z,68.60
2017-11-22T19:59:40.582Z,68.60
2017-11-22T20:02:08.202Z,68.60
2017-11-22T20:04:36.561Z,69.30
2017-11-22T20:10:06.688Z,68.30
2017-11-22T20:12:34.269Z,68.30
2017-11-22T20:15:01.823Z,68.50
2017-11-22T20:17:29.401Z,68.80
2017-11-22T20:19:58.135Z,70.10
2017-11-22T20:22:25.701Z,70.10
2017-11-22T20:24:53.946Z,69.00
2017-11-22T20:27:22.348Z,69.30
2017-11-22T20:29:49.934Z,69.30
2017-11-22T20:32:17.508Z,69.50
2017-11-22T20:34:45.072Z,69.50
2017-11-22T20:37:13.512Z,69.70
2017-11-22T20:39:41.149Z,69.70
2017-11-22T20:42:08.690Z,69.40
2017-11-22T20:44:37.042Z,68.90
2017-11-22T20:47:04.638Z,68.90
2017-11-22T20:49:32.228Z,68.60
2017-11-22T20:51:59.796Z,69.40
2017-11-22T20:54:27.362Z,69.50
2017-11-22T20:56:55.403Z,69.40
2017-11-22T20:59:23.011Z,69.10
2017-11-22T21:01:50.616Z,68.90
2017-11-22T21:04:18.160Z,69.60
2017-11-22T21:06:46.478Z,69.00
2017-11-22T21:09:14.072Z,69.00
2017-11-22T21:11:41.638Z,69.10
2017-11-22T21:14:09.979Z,70.50
2017-11-22T21:16:37.561Z,70.50
2017-11-22T21:19:05.423Z,70.20
2017-11-22T21:21:33.002Z,70.60
2017-11-22T21:24:01.369Z,70.00
2017-11-22T21:26:28.923Z,70.00
2017-11-22T21:28:56.497Z,70.00
2017-11-22T21:31:24.070Z,69.80
2017-11-22T21:33:52.395Z,70.10
2017-11-22T21:36:19.978Z,70.10
2017-11-22T21:38:47.534Z,70.90
2017-11-22T21:41:15.101Z,71.20
2017-11-22T21:43:42.676Z,70.40
2017-11-22T21:46:10.229Z,70.40
2017-11-22T21:48:37.791Z,70.90
2017-11-22T21:51:06.172Z,70.80
2017-11-22T21:53:33.735Z,70.80
2017-11-22T21:56:01.277Z,70.50
2017-11-22T21:58:28.880Z,70.40
2017-11-22T22:00:56.452Z,70.60
2017-11-22T22:03:24.047Z,70.50
2017-11-22T22:05:51.636Z,70.00
2017-11-22T22:08:19.969Z,70.70
2017-11-22T22:10:47.575Z,70.00
2017-11-22T22:13:15.920Z,69.70
2017-11-22T22:15:43.477Z,69.70
2017-11-22T22:18:11.059Z,70.10
2017-11-22T22:20:38.637Z,69.70
2017-11-22T22:23:06.976Z,70.30
2017-11-22T22:25:34.572Z,70.30
2017-11-22T22:28:02.880Z,70.50
2017-11-22T22:30:30.482Z,70.40
2017-11-22T22:33:00.425Z,70.70
2017-11-22T22:35:30.092Z,71.00
2017-11-22T22:38:00.669Z,70.90
2017-11-22T22:40:28.309Z,70.40
2017-11-22T22:42:55.858Z,70.70
2017-11-22T22:45:23.440Z,70.40
2017-11-22T22:47:51.023Z,70.70
2017-11-22T22:50:18.607Z,70.10
2017-11-22T22:52:46.153Z,70.50
2017-11-22T22:55:13.703Z,70.50
2017-11-22T22:57:41.284Z,70.70
2017-11-22T23:00:08.841Z,70.40
2017-11-22T23:02:36.417Z,70.00
2017-11-22T23:05:05.459Z,69.90
2017-11-22T23:07:33.766Z,69.80
2017-11-22T23:10:01.351Z,69.70
2017-11-22T23:12:28.931Z,70.20
2017-11-22T23:14:56.523Z,70.30
2017-11-22T23:17:24.882Z,71.50
2017-11-22T23:19:52.430Z,71.40
2017-11-22T23:22:20.048Z,70.80
2017-11-22T23:24:47.636Z,70.90
2017-11-22T23:27:15.216Z,70.60
2017-11-22T23:29:42.767Z,71.00
2017-11-22T23:32:10.334Z,70.60
2017-11-22T23:34:37.936Z,70.70
2017-11-22T23:37:05.513Z,70.10
2017-11-22T23:39:33.081Z,70.40
2017-11-22T23:42:00.664Z,70.60
2017-11-22T23:44:28.214Z,70.70
2017-11-22T23:46:56.560Z,71.00
2017-11-22T23:49:24.175Z,70.90
2017-11-22T23:51:51.752Z,70.90
2017-11-22T23:54:21.500Z,71.00
2017-11-22T23:56:49.117Z,71.00
2017-11-22T23:59:16.696Z,71.00
